Hopkinton, MA

4:02 PM EST on February 28, 2015 (GMT -0500)
North Central State | Change Station
CLOSE
Current Station
Airport
Location: Pawtucket,
Elevation: 440 ft
Nearby Weather Stations
Active Advisory: Winter Weather Advisory

Elev 440 ft 41.92 °N, 71.49 °W | Updated 7 minutes ago

Clear
Clear
30 °F
Feels Like 22 °F
N
9
Wind Variable Wind from West

Today
High -- | Low -- °F
--% Chance of Precip.
Yesterday
High -- | Low -- °F
Precip. -- in
6:23 AM 5:34 PM
Waxing Gibbous, 80% visible
Pressure 30.65 in
Visibility 10.0 miles
Clouds Clear
Windchill 22 °F
Dew Point -2 °F
Humidity 25%
Rainfall 0.00 in
Snow Depth Not available.
UV 1 out of 12
Pollen .40 out of 12
Air Quality Not available.
Flu Activity Not available.
METAR KSFZ 282055Z 28008KT 10SM CLR M01/M19 A3065 RMK AO1 57010

More Conditions Fewer Conditions

Pressure 30.65 in
Visibility 10.0 miles
Clouds Clear
Windchill 22 °F
Dew Point -2 °F
Humidity 25%
Rainfall 0.00 in
Snow Depth Not available.
UV 1 out of 12
Pollen .40 out of 12
Air Quality Not available.
Flu Activity Not available.
METAR KSFZ 282055Z 28008KT 10SM CLR M01/M19 A3065 RMK AO1 57010

More Conditions Fewer Conditions

10-Day Weather Forecast

Almanac

Astronomy

Feb. 28, 2015 Rise Set
Actual Time
Civil Twilight
Nautical Twilight
Astronomical Twilight
Moon
Length of Visible Light
Length of Day
Tomorrow will be .
, % of the Moon is Illuminated

Today's Extremes

State Highs State Lows

Community

WunderPhotos

Upload Photos

1,801,150 photos uploaded!

WunderBlogs® & News

Nearby

Air Quality

  Air Quality AQ Index Pollutant
Not available.

Snow Depth

Station Depth Elevation

Earthquake Activity

City Distance Mag. Time & Date
Minimum magnitude displayed is 2.5.

Coastal Water Temperatures

Place Temperature

Nearby Weather Stations

Winter Weather Advisory
Statement as of 3:24 PM EST on February 28, 2015

... Winter Weather Advisory remains in effect from noon Sunday to
7 am EST Monday...

* locations... include areas of Massachusetts north of the
Massachusetts Turnpike.

* Hazard types... snow.

* Snow accumulations... 4 to 6 inches.

* Timing... light snow develops during the mid to late afternoon
hours on Sunday... picking up in intensity Sunday evening into
Sunday night. The snow concludes by daybreak Monday.

* Impacts... untreated roads will become snow covered and
slippery by Sunday evening along with poor visibility at times.

* Visibilities... one quarter to one half mile at times.

Precautionary/preparedness actions...

A Winter Weather Advisory is issued when snow and/or ice is
forecast to develop in the affected areas... but accumulations are
expected to be light. Any snow or ice would result in slippery
conditions on untreated roadways and sidewalks. When temperatures
are below freezing... motorists need to be especially careful on
bridges and overpasses where slippery spots can easily develop.